sensor_id;sensor_type;location;lat;lon;timestamp;P1;durP1;ratioP1;P2;durP2;ratioP2
64199;SDS011;50516;52.272;5.136;2023-04-12T00:01:26;15.05;;;4.05;;
64199;SDS011;50516;52.272;5.136;2023-04-12T00:03:51;10.27;;;3.30;;
64199;SDS011;50516;52.272;5.136;2023-04-12T00:06:18;14.85;;;4.10;;
64199;SDS011;50516;52.272;5.136;2023-04-12T00:08:51;11.43;;;3.55;;
64199;SDS011;50516;52.272;5.136;2023-04-12T00:11:17;13.38;;;4.35;;
64199;SDS011;50516;52.272;5.136;2023-04-12T00:13:42;11.32;;;3.67;;
64199;SDS011;50516;52.272;5.136;2023-04-12T00:16:08;15.15;;;4.32;;
64199;SDS011;50516;52.272;5.136;2023-04-12T00:18:33;9.45;;;3.60;;
64199;SDS011;50516;52.272;5.136;2023-04-12T00:20:59;10.70;;;4.38;;
64199;SDS011;50516;52.272;5.136;2023-04-12T00:23:24;8.85;;;3.65;;
64199;SDS011;50516;52.272;5.136;2023-04-12T00:25:50;10.68;;;4.25;;
64199;SDS011;50516;52.272;5.136;2023-04-12T00:28:15;10.85;;;3.35;;
64199;SDS011;50516;52.272;5.136;2023-04-12T00:30:41;10.95;;;3.50;;
64199;SDS011;50516;52.272;5.136;2023-04-12T00:33:06;9.40;;;3.60;;
64199;SDS011;50516;52.272;5.136;2023-04-12T00:35:32;14.18;;;4.55;;
64199;SDS011;50516;52.272;5.136;2023-04-12T00:37:57;9.95;;;2.92;;
64199;SDS011;50516;52.272;5.136;2023-04-12T00:40:22;7.75;;;3.70;;
64199;SDS011;50516;52.272;5.136;2023-04-12T00:42:48;9.75;;;3.30;;
64199;SDS011;50516;52.272;5.136;2023-04-12T00:45:13;11.02;;;3.20;;
64199;SDS011;50516;52.272;5.136;2023-04-12T00:47:39;8.90;;;3.70;;
64199;SDS011;50516;52.272;5.136;2023-04-12T00:50:07;6.13;;;2.88;;
64199;SDS011;50516;52.272;5.136;2023-04-12T00:52:33;14.65;;;3.60;;
64199;SDS011;50516;52.272;5.136;2023-04-12T00:55:02;6.90;;;2.70;;
64199;SDS011;50516;52.272;5.136;2023-04-12T00:57:30;9.05;;;3.28;;
64199;SDS011;50516;52.272;5.136;2023-04-12T01:00:02;7.72;;;3.28;;
64199;SDS011;50516;52.272;5.136;2023-04-12T01:02:33;8.60;;;3.03;;
64199;SDS011;50516;52.272;5.136;2023-04-12T01:04:58;3.45;;;2.08;;
64199;SDS011;50516;52.272;5.136;2023-04-12T01:07:31;7.32;;;2.65;;
64199;SDS011;50516;52.272;5.136;2023-04-12T01:15:29;4.28;;;2.10;;
64199;SDS011;50516;52.272;5.136;2023-04-12T01:18:01;5.60;;;2.50;;
64199;SDS011;50516;52.272;5.136;2023-04-12T01:20:34;5.70;;;2.25;;
64199;SDS011;50516;52.272;5.136;2023-04-12T01:25:47;3.70;;;2.20;;
64199;SDS011;50516;52.272;5.136;2023-04-12T01:28:25;8.25;;;2.40;;
64199;SDS011;50516;52.272;5.136;2023-04-12T01:30:53;4.72;;;2.33;;
64199;SDS011;50516;52.272;5.136;2023-04-12T01:33:18;6.70;;;2.38;;
64199;SDS011;50516;52.272;5.136;2023-04-12T01:35:46;5.00;;;2.35;;
64199;SDS011;50516;52.272;5.136;2023-04-12T01:38:13;3.35;;;2.13;;
64199;SDS011;50516;52.272;5.136;2023-04-12T01:40:39;7.45;;;2.58;;
64199;SDS011;50516;52.272;5.136;2023-04-12T01:43:10;4.30;;;2.20;;
64199;SDS011;50516;52.272;5.136;2023-04-12T01:45:37;6.20;;;2.58;;
64199;SDS011;50516;52.272;5.136;2023-04-12T01:48:04;6.63;;;2.90;;
64199;SDS011;50516;52.272;5.136;2023-04-12T01:50:49;4.85;;;2.92;;
64199;SDS011;50516;52.272;5.136;2023-04-12T01:53:27;14.32;;;3.22;;
64199;SDS011;50516;52.272;5.136;2023-04-12T01:56:14;7.03;;;3.22;;
64199;SDS011;50516;52.272;5.136;2023-04-12T01:58:41;6.00;;;2.40;;
64199;SDS011;50516;52.272;5.136;2023-04-12T02:01:08;7.45;;;2.75;;
64199;SDS011;50516;52.272;5.136;2023-04-12T02:03:37;6.13;;;2.42;;
64199;SDS011;50516;52.272;5.136;2023-04-12T02:06:06;9.68;;;2.70;;
64199;SDS011;50516;52.272;5.136;2023-04-12T02:08:32;6.13;;;2.67;;
64199;SDS011;50516;52.272;5.136;2023-04-12T02:10:58;7.35;;;2.42;;
64199;SDS011;50516;52.272;5.136;2023-04-12T02:13:23;5.10;;;2.50;;
64199;SDS011;50516;52.272;5.136;2023-04-12T02:15:50;6.45;;;2.55;;
64199;SDS011;50516;52.272;5.136;2023-04-12T02:18:18;6.72;;;2.65;;
64199;SDS011;50516;52.272;5.136;2023-04-12T02:20:44;7.68;;;2.72;;
64199;SDS011;50516;52.272;5.136;2023-04-12T02:23:09;6.85;;;2.38;;
64199;SDS011;50516;52.272;5.136;2023-04-12T02:25:34;7.53;;;2.72;;
64199;SDS011;50516;52.272;5.136;2023-04-12T02:28:00;6.28;;;2.47;;
64199;SDS011;50516;52.272;5.136;2023-04-12T02:30:25;4.80;;;2.58;;
64199;SDS011;50516;52.272;5.136;2023-04-12T02:32:51;7.57;;;2.65;;
64199;SDS011;50516;52.272;5.136;2023-04-12T02:35:17;4.32;;;2.40;;
64199;SDS011;50516;52.272;5.136;2023-04-12T02:37:43;6.07;;;2.28;;
64199;SDS011;50516;52.272;5.136;2023-04-12T02:40:10;5.82;;;2.95;;
64199;SDS011;50516;52.272;5.136;2023-04-12T02:42:38;7.38;;;2.28;;
64199;SDS011;50516;52.272;5.136;2023-04-12T02:45:03;7.43;;;2.47;;
64199;SDS011;50516;52.272;5.136;2023-04-12T02:47:29;5.80;;;2.95;;
64199;SDS011;50516;52.272;5.136;2023-04-12T02:49:54;6.45;;;2.95;;
64199;SDS011;50516;52.272;5.136;2023-04-12T02:52:20;6.05;;;2.10;;
64199;SDS011;50516;52.272;5.136;2023-04-12T02:54:45;7.97;;;3.17;;
64199;SDS011;50516;52.272;5.136;2023-04-12T02:57:13;8.32;;;3.10;;
64199;SDS011;50516;52.272;5.136;2023-04-12T02:59:40;8.80;;;2.50;;
64199;SDS011;50516;52.272;5.136;2023-04-12T03:02:05;6.20;;;2.60;;
64199;SDS011;50516;52.272;5.136;2023-04-12T03:04:31;9.60;;;2.50;;
64199;SDS011;50516;52.272;5.136;2023-04-12T03:06:56;4.13;;;2.17;;
64199;SDS011;50516;52.272;5.136;2023-04-12T03:09:22;8.10;;;2.70;;
64199;SDS011;50516;52.272;5.136;2023-04-12T03:11:47;5.95;;;2.70;;
64199;SDS011;50516;52.272;5.136;2023-04-12T03:14:13;7.57;;;2.92;;
64199;SDS011;50516;52.272;5.136;2023-04-12T03:16:38;8.35;;;2.58;;
64199;SDS011;50516;52.272;5.136;2023-04-12T03:19:04;7.00;;;2.72;;
64199;SDS011;50516;52.272;5.136;2023-04-12T03:21:30;8.88;;;2.85;;
64199;SDS011;50516;52.272;5.136;2023-04-12T03:23:57;6.65;;;2.63;;
64199;SDS011;50516;52.272;5.136;2023-04-12T03:26:22;6.25;;;2.95;;
64199;SDS011;50516;52.272;5.136;2023-04-12T03:28:50;8.38;;;2.70;;
64199;SDS011;50516;52.272;5.136;2023-04-12T03:31:16;5.22;;;2.63;;
64199;SDS011;50516;52.272;5.136;2023-04-12T03:33:44;11.02;;;3.30;;
64199;SDS011;50516;52.272;5.136;2023-04-12T03:36:10;6.47;;;2.60;;
64199;SDS011;50516;52.272;5.136;2023-04-12T03:38:35;5.10;;;2.40;;
64199;SDS011;50516;52.272;5.136;2023-04-12T03:41:01;6.07;;;2.78;;
64199;SDS011;50516;52.272;5.136;2023-04-12T03:43:26;8.38;;;2.85;;
64199;SDS011;50516;52.272;5.136;2023-04-12T03:45:52;11.05;;;2.67;;
64199;SDS011;50516;52.272;5.136;2023-04-12T03:48:17;7.80;;;3.50;;
64199;SDS011;50516;52.272;5.136;2023-04-12T03:50:43;7.93;;;2.60;;
64199;SDS011;50516;52.272;5.136;2023-04-12T03:53:11;7.03;;;2.63;;
64199;SDS011;50516;52.272;5.136;2023-04-12T03:55:37;7.22;;;3.10;;
64199;SDS011;50516;52.272;5.136;2023-04-12T03:58:03;9.10;;;3.17;;
64199;SDS011;50516;52.272;5.136;2023-04-12T04:00:29;7.20;;;2.42;;
64199;SDS011;50516;52.272;5.136;2023-04-12T04:02:58;4.78;;;2.40;;
64199;SDS011;50516;52.272;5.136;2023-04-12T04:05:27;5.75;;;3.05;;
64199;SDS011;50516;52.272;5.136;2023-04-12T04:07:53;3.33;;;2.13;;
64199;SDS011;50516;52.272;5.136;2023-04-12T04:10:20;5.55;;;2.28;;
64199;SDS011;50516;52.272;5.136;2023-04-12T04:12:48;8.70;;;2.50;;
64199;SDS011;50516;52.272;5.136;2023-04-12T04:15:14;7.68;;;2.67;;
64199;SDS011;50516;52.272;5.136;2023-04-12T04:17:39;5.00;;;2.15;;
64199;SDS011;50516;52.272;5.136;2023-04-12T04:20:06;5.45;;;2.17;;
64199;SDS011;50516;52.272;5.136;2023-04-12T04:22:33;7.47;;;2.50;;
64199;SDS011;50516;52.272;5.136;2023-04-12T04:24:58;6.35;;;3.00;;
64199;SDS011;50516;52.272;5.136;2023-04-12T04:27:25;4.30;;;2.30;;
64199;SDS011;50516;52.272;5.136;2023-04-12T04:29:54;3.17;;;1.88;;
64199;SDS011;50516;52.272;5.136;2023-04-12T04:32:22;5.25;;;2.42;;
64199;SDS011;50516;52.272;5.136;2023-04-12T04:34:47;6.53;;;2.25;;
64199;SDS011;50516;52.272;5.136;2023-04-12T04:37:12;5.30;;;2.95;;
64199;SDS011;50516;52.272;5.136;2023-04-12T04:39:38;3.15;;;1.90;;
64199;SDS011;50516;52.272;5.136;2023-04-12T04:42:03;5.82;;;2.38;;
64199;SDS011;50516;52.272;5.136;2023-04-12T04:44:30;5.50;;;2.58;;
64199;SDS011;50516;52.272;5.136;2023-04-12T04:46:55;7.03;;;2.40;;
64199;SDS011;50516;52.272;5.136;2023-04-12T04:49:23;3.25;;;2.42;;
64199;SDS011;50516;52.272;5.136;2023-04-12T04:51:48;4.47;;;2.38;;
64199;SDS011;50516;52.272;5.136;2023-04-12T04:54:14;4.90;;;2.33;;
64199;SDS011;50516;52.272;5.136;2023-04-12T04:56:40;5.63;;;2.25;;
64199;SDS011;50516;52.272;5.136;2023-04-12T04:59:05;4.88;;;2.00;;
64199;SDS011;50516;52.272;5.136;2023-04-12T05:01:31;6.72;;;2.20;;
64199;SDS011;50516;52.272;5.136;2023-04-12T05:03:59;4.95;;;2.10;;
64199;SDS011;50516;52.272;5.136;2023-04-12T05:06:25;7.80;;;2.22;;
64199;SDS011;50516;52.272;5.136;2023-04-12T05:08:51;4.75;;;2.38;;
64199;SDS011;50516;52.272;5.136;2023-04-12T05:11:16;3.50;;;2.25;;
64199;SDS011;50516;52.272;5.136;2023-04-12T05:13:42;5.13;;;2.13;;
64199;SDS011;50516;52.272;5.136;2023-04-12T05:16:07;4.38;;;2.38;;
64199;SDS011;50516;52.272;5.136;2023-04-12T05:18:33;5.90;;;2.50;;
64199;SDS011;50516;52.272;5.136;2023-04-12T05:21:02;2.78;;;1.95;;
64199;SDS011;50516;52.272;5.136;2023-04-12T05:23:29;4.80;;;2.70;;
64199;SDS011;50516;52.272;5.136;2023-04-12T05:25:57;5.50;;;2.45;;
64199;SDS011;50516;52.272;5.136;2023-04-12T05:28:22;5.88;;;3.05;;
64199;SDS011;50516;52.272;5.136;2023-04-12T05:30:47;6.35;;;2.72;;
64199;SDS011;50516;52.272;5.136;2023-04-12T05:33:12;4.95;;;2.70;;
64199;SDS011;50516;52.272;5.136;2023-04-12T05:35:38;4.55;;;2.75;;
64199;SDS011;50516;52.272;5.136;2023-04-12T05:38:03;4.75;;;2.60;;
64199;SDS011;50516;52.272;5.136;2023-04-12T05:40:28;4.22;;;2.60;;
64199;SDS011;50516;52.272;5.136;2023-04-12T05:42:55;5.25;;;2.80;;
64199;SDS011;50516;52.272;5.136;2023-04-12T05:45:21;6.47;;;3.00;;
64199;SDS011;50516;52.272;5.136;2023-04-12T05:47:46;4.60;;;2.85;;
64199;SDS011;50516;52.272;5.136;2023-04-12T05:50:11;4.70;;;2.78;;
64199;SDS011;50516;52.272;5.136;2023-04-12T05:52:36;3.80;;;2.80;;
64199;SDS011;50516;52.272;5.136;2023-04-12T05:55:02;6.15;;;3.15;;
64199;SDS011;50516;52.272;5.136;2023-04-12T05:57:29;4.70;;;2.97;;
64199;SDS011;50516;52.272;5.136;2023-04-12T05:59:54;5.88;;;3.00;;
64199;SDS011;50516;52.272;5.136;2023-04-12T06:02:19;6.88;;;3.17;;
64199;SDS011;50516;52.272;5.136;2023-04-12T06:04:45;5.32;;;2.80;;
64199;SDS011;50516;52.272;5.136;2023-04-12T06:07:10;5.20;;;3.20;;
64199;SDS011;50516;52.272;5.136;2023-04-12T06:09:35;5.60;;;3.38;;
64199;SDS011;50516;52.272;5.136;2023-04-12T06:12:01;5.45;;;3.00;;
64199;SDS011;50516;52.272;5.136;2023-04-12T06:14:27;5.97;;;3.15;;
64199;SDS011;50516;52.272;5.136;2023-04-12T06:16:52;3.35;;;2.65;;
64199;SDS011;50516;52.272;5.136;2023-04-12T06:19:17;4.82;;;2.90;;
64199;SDS011;50516;52.272;5.136;2023-04-12T06:21:42;4.32;;;3.20;;
64199;SDS011;50516;52.272;5.136;2023-04-12T06:24:08;4.63;;;3.47;;
64199;SDS011;50516;52.272;5.136;2023-04-12T06:26:33;7.30;;;3.20;;
64199;SDS011;50516;52.272;5.136;2023-04-12T06:28:59;8.10;;;4.00;;
64199;SDS011;50516;52.272;5.136;2023-04-12T06:31:24;5.80;;;3.20;;
64199;SDS011;50516;52.272;5.136;2023-04-12T06:33:49;7.10;;;3.63;;
64199;SDS011;50516;52.272;5.136;2023-04-12T06:36:15;6.55;;;4.15;;
64199;SDS011;50516;52.272;5.136;2023-04-12T06:38:40;7.38;;;4.18;;
64199;SDS011;50516;52.272;5.136;2023-04-12T06:41:06;7.20;;;3.92;;
64199;SDS011;50516;52.272;5.136;2023-04-12T06:43:31;7.68;;;4.00;;
64199;SDS011;50516;52.272;5.136;2023-04-12T06:45:56;10.13;;;4.15;;
64199;SDS011;50516;52.272;5.136;2023-04-12T06:48:22;9.10;;;4.30;;
64199;SDS011;50516;52.272;5.136;2023-04-12T06:50:47;10.55;;;4.60;;
64199;SDS011;50516;52.272;5.136;2023-04-12T06:53:12;9.73;;;4.57;;
64199;SDS011;50516;52.272;5.136;2023-04-12T06:55:38;12.05;;;4.70;;
64199;SDS011;50516;52.272;5.136;2023-04-12T06:58:04;5.60;;;3.92;;
64199;SDS011;50516;52.272;5.136;2023-04-12T07:00:29;9.88;;;4.32;;
64199;SDS011;50516;52.272;5.136;2023-04-12T07:02:55;8.20;;;4.70;;
64199;SDS011;50516;52.272;5.136;2023-04-12T07:05:20;7.50;;;4.63;;
64199;SDS011;50516;52.272;5.136;2023-04-12T07:07:45;12.00;;;5.45;;
64199;SDS011;50516;52.272;5.136;2023-04-12T07:10:11;10.65;;;4.68;;
64199;SDS011;50516;52.272;5.136;2023-04-12T07:12:36;9.88;;;4.68;;
64199;SDS011;50516;52.272;5.136;2023-04-12T07:15:01;13.68;;;5.20;;
64199;SDS011;50516;52.272;5.136;2023-04-12T07:17:27;12.70;;;5.95;;
64199;SDS011;50516;52.272;5.136;2023-04-12T07:19:53;13.52;;;4.95;;
64199;SDS011;50516;52.272;5.136;2023-04-12T07:22:18;13.82;;;5.93;;
64199;SDS011;50516;52.272;5.136;2023-04-12T07:24:44;11.88;;;5.18;;
64199;SDS011;50516;52.272;5.136;2023-04-12T07:27:09;11.57;;;5.47;;
64199;SDS011;50516;52.272;5.136;2023-04-12T07:29:35;11.30;;;5.60;;
64199;SDS011;50516;52.272;5.136;2023-04-12T07:32:00;26.48;;;5.97;;
64199;SDS011;50516;52.272;5.136;2023-04-12T07:34:27;13.00;;;5.38;;
64199;SDS011;50516;52.272;5.136;2023-04-12T07:36:52;17.20;;;4.75;;
64199;SDS011;50516;52.272;5.136;2023-04-12T07:39:17;12.43;;;4.97;;
64199;SDS011;50516;52.272;5.136;2023-04-12T07:41:42;12.27;;;5.10;;
64199;SDS011;50516;52.272;5.136;2023-04-12T07:44:12;15.48;;;5.32;;
64199;SDS011;50516;52.272;5.136;2023-04-12T07:46:37;17.35;;;5.18;;
64199;SDS011;50516;52.272;5.136;2023-04-12T07:49:03;16.13;;;4.72;;
64199;SDS011;50516;52.272;5.136;2023-04-12T07:51:28;22.27;;;5.20;;
64199;SDS011;50516;52.272;5.136;2023-04-12T07:53:53;19.20;;;4.18;;
64199;SDS011;50516;52.272;5.136;2023-04-12T07:56:19;26.20;;;5.20;;
64199;SDS011;50516;52.272;5.136;2023-04-12T07:58:44;24.23;;;5.18;;
64199;SDS011;50516;52.272;5.136;2023-04-12T08:01:10;19.08;;;4.80;;
64199;SDS011;50516;52.272;5.136;2023-04-12T08:03:37;27.23;;;5.50;;
64199;SDS011;50516;52.272;5.136;2023-04-12T08:06:02;20.73;;;5.15;;
64199;SDS011;50516;52.272;5.136;2023-04-12T08:08:28;27.90;;;6.38;;
64199;SDS011;50516;52.272;5.136;2023-04-12T08:10:53;29.67;;;6.00;;
64199;SDS011;50516;52.272;5.136;2023-04-12T08:13:19;23.00;;;5.18;;
64199;SDS011;50516;52.272;5.136;2023-04-12T08:15:45;17.48;;;4.75;;
64199;SDS011;50516;52.272;5.136;2023-04-12T08:18:11;20.17;;;4.78;;
64199;SDS011;50516;52.272;5.136;2023-04-12T08:20:36;27.58;;;6.13;;
64199;SDS011;50516;52.272;5.136;2023-04-12T08:23:04;27.83;;;5.25;;
64199;SDS011;50516;52.272;5.136;2023-04-12T08:25:30;26.65;;;6.13;;
64199;SDS011;50516;52.272;5.136;2023-04-12T08:27:55;22.08;;;4.95;;
64199;SDS011;50516;52.272;5.136;2023-04-12T08:30:21;19.63;;;4.88;;
64199;SDS011;50516;52.272;5.136;2023-04-12T08:32:50;23.08;;;6.20;;
64199;SDS011;50516;52.272;5.136;2023-04-12T08:35:16;23.30;;;4.75;;
64199;SDS011;50516;52.272;5.136;2023-04-12T08:37:41;25.77;;;6.18;;
64199;SDS011;50516;52.272;5.136;2023-04-12T08:40:06;19.00;;;4.72;;
64199;SDS011;50516;52.272;5.136;2023-04-12T08:42:33;19.80;;;6.50;;
64199;SDS011;50516;52.272;5.136;2023-04-12T08:45:03;17.60;;;5.13;;
64199;SDS011;50516;52.272;5.136;2023-04-12T08:47:42;21.08;;;5.45;;
64199;SDS011;50516;52.272;5.136;2023-04-12T08:50:09;21.92;;;4.10;;
64199;SDS011;50516;52.272;5.136;2023-04-12T08:52:37;19.65;;;4.93;;
64199;SDS011;50516;52.272;5.136;2023-04-12T08:55:06;14.32;;;3.90;;
64199;SDS011;50516;52.272;5.136;2023-04-12T08:57:38;21.90;;;5.28;;
64199;SDS011;50516;52.272;5.136;2023-04-12T09:00:06;17.00;;;6.07;;
64199;SDS011;50516;52.272;5.136;2023-04-12T09:02:33;20.92;;;4.28;;
64199;SDS011;50516;52.272;5.136;2023-04-12T09:05:00;18.63;;;4.07;;
64199;SDS011;50516;52.272;5.136;2023-04-12T09:07:25;20.77;;;5.18;;
64199;SDS011;50516;52.272;5.136;2023-04-12T09:09:57;19.33;;;5.05;;
64199;SDS011;50516;52.272;5.136;2023-04-12T09:12:22;19.75;;;5.47;;
64199;SDS011;50516;52.272;5.136;2023-04-12T09:14:48;24.00;;;4.30;;
64199;SDS011;50516;52.272;5.136;2023-04-12T09:17:33;21.33;;;4.07;;
64199;SDS011;50516;52.272;5.136;2023-04-12T09:20:01;19.38;;;4.57;;
64199;SDS011;50516;52.272;5.136;2023-04-12T09:22:34;18.17;;;5.75;;
64199;SDS011;50516;52.272;5.136;2023-04-12T09:25:01;21.95;;;6.78;;
64199;SDS011;50516;52.272;5.136;2023-04-12T09:27:27;21.38;;;5.03;;
64199;SDS011;50516;52.272;5.136;2023-04-12T09:30:06;20.48;;;4.78;;
64199;SDS011;50516;52.272;5.136;2023-04-12T09:32:34;18.15;;;4.32;;
64199;SDS011;50516;52.272;5.136;2023-04-12T09:35:00;19.38;;;4.38;;
64199;SDS011;50516;52.272;5.136;2023-04-12T09:37:26;22.00;;;4.57;;
64199;SDS011;50516;52.272;5.136;2023-04-12T09:39:58;20.80;;;4.93;;
64199;SDS011;50516;52.272;5.136;2023-04-12T09:42:32;20.58;;;4.32;;
64199;SDS011;50516;52.272;5.136;2023-04-12T09:44:58;18.23;;;3.97;;
64199;SDS011;50516;52.272;5.136;2023-04-12T09:47:38;19.40;;;4.30;;
64199;SDS011;50516;52.272;5.136;2023-04-12T09:50:04;17.65;;;3.90;;
64199;SDS011;50516;52.272;5.136;2023-04-12T09:52:35;16.25;;;4.63;;
64199;SDS011;50516;52.272;5.136;2023-04-12T09:55:02;21.30;;;4.20;;
64199;SDS011;50516;52.272;5.136;2023-04-12T09:57:33;18.60;;;4.30;;
64199;SDS011;50516;52.272;5.136;2023-04-12T10:00:04;21.73;;;4.75;;
64199;SDS011;50516;52.272;5.136;2023-04-12T10:02:41;20.15;;;4.63;;
64199;SDS011;50516;52.272;5.136;2023-04-12T10:05:09;22.33;;;5.07;;
64199;SDS011;50516;52.272;5.136;2023-04-12T10:07:37;21.30;;;4.53;;
64199;SDS011;50516;52.272;5.136;2023-04-12T10:10:04;17.58;;;3.85;;
64199;SDS011;50516;52.272;5.136;2023-04-12T10:12:30;15.88;;;3.58;;
64199;SDS011;50516;52.272;5.136;2023-04-12T10:14:56;21.92;;;4.72;;
64199;SDS011;50516;52.272;5.136;2023-04-12T10:17:22;15.30;;;4.82;;
64199;SDS011;50516;52.272;5.136;2023-04-12T10:19:50;16.27;;;4.10;;
64199;SDS011;50516;52.272;5.136;2023-04-12T10:22:16;15.75;;;4.00;;
64199;SDS011;50516;52.272;5.136;2023-04-12T10:24:41;14.48;;;4.15;;
64199;SDS011;50516;52.272;5.136;2023-04-12T10:27:07;12.35;;;3.67;;
64199;SDS011;50516;52.272;5.136;2023-04-12T10:29:34;17.17;;;3.78;;
64199;SDS011;50516;52.272;5.136;2023-04-12T10:32:17;21.60;;;4.78;;
64199;SDS011;50516;52.272;5.136;2023-04-12T10:34:45;15.07;;;4.10;;
64199;SDS011;50516;52.272;5.136;2023-04-12T10:37:15;12.85;;;4.10;;
64199;SDS011;50516;52.272;5.136;2023-04-12T10:39:41;12.55;;;3.50;;
64199;SDS011;50516;52.272;5.136;2023-04-12T10:42:29;16.88;;;3.78;;
64199;SDS011;50516;52.272;5.136;2023-04-12T10:44:55;18.42;;;3.90;;
64199;SDS011;50516;52.272;5.136;2023-04-12T10:50:22;17.08;;;4.28;;
64199;SDS011;50516;52.272;5.136;2023-04-12T10:55:45;14.88;;;3.63;;
64199;SDS011;50516;52.272;5.136;2023-04-12T11:01:11;19.92;;;5.18;;
64199;SDS011;50516;52.272;5.136;2023-04-12T11:03:39;15.82;;;3.88;;
64199;SDS011;50516;52.272;5.136;2023-04-12T11:09:58;23.67;;;4.75;;
64199;SDS011;50516;52.272;5.136;2023-04-12T11:14:35;19.52;;;4.97;;
64199;SDS011;50516;52.272;5.136;2023-04-12T11:19:33;18.17;;;4.20;;
64199;SDS011;50516;52.272;5.136;2023-04-12T11:22:08;19.88;;;4.25;;
64199;SDS011;50516;52.272;5.136;2023-04-12T11:24:38;17.55;;;4.20;;
64199;SDS011;50516;52.272;5.136;2023-04-12T11:27:20;15.02;;;3.67;;
64199;SDS011;50516;52.272;5.136;2023-04-12T11:29:47;22.42;;;5.25;;
64199;SDS011;50516;52.272;5.136;2023-04-12T11:32:17;16.23;;;4.32;;
64199;SDS011;50516;52.272;5.136;2023-04-12T11:34:43;14.32;;;3.53;;
64199;SDS011;50516;52.272;5.136;2023-04-12T11:37:10;16.92;;;5.22;;
64199;SDS011;50516;52.272;5.136;2023-04-12T11:39:40;16.83;;;4.18;;
64199;SDS011;50516;52.272;5.136;2023-04-12T11:42:07;13.98;;;4.30;;
64199;SDS011;50516;52.272;5.136;2023-04-12T11:44:38;13.10;;;3.72;;
64199;SDS011;50516;52.272;5.136;2023-04-12T11:47:04;15.07;;;4.63;;
64199;SDS011;50516;52.272;5.136;2023-04-12T11:49:30;12.38;;;4.07;;
64199;SDS011;50516;52.272;5.136;2023-04-12T11:52:01;15.45;;;3.70;;
64199;SDS011;50516;52.272;5.136;2023-04-12T11:54:28;11.38;;;3.25;;
64199;SDS011;50516;52.272;5.136;2023-04-12T11:56:55;12.73;;;3.33;;
64199;SDS011;50516;52.272;5.136;2023-04-12T11:59:22;17.38;;;4.15;;
64199;SDS011;50516;52.272;5.136;2023-04-12T12:01:50;16.85;;;3.58;;
64199;SDS011;50516;52.272;5.136;2023-04-12T12:04:15;13.18;;;3.80;;
64199;SDS011;50516;52.272;5.136;2023-04-12T12:06:41;17.55;;;3.67;;
64199;SDS011;50516;52.272;5.136;2023-04-12T12:09:07;20.83;;;5.05;;
64199;SDS011;50516;52.272;5.136;2023-04-12T12:11:33;15.65;;;3.30;;
64199;SDS011;50516;52.272;5.136;2023-04-12T12:13:58;12.65;;;3.38;;
64199;SDS011;50516;52.272;5.136;2023-04-12T12:16:27;17.33;;;3.05;;
64199;SDS011;50516;52.272;5.136;2023-04-12T12:18:54;12.13;;;3.00;;
64199;SDS011;50516;52.272;5.136;2023-04-12T12:21:20;15.30;;;3.38;;
64199;SDS011;50516;52.272;5.136;2023-04-12T12:23:47;13.63;;;2.97;;
64199;SDS011;50516;52.272;5.136;2023-04-12T12:28:50;12.30;;;2.67;;
64199;SDS011;50516;52.272;5.136;2023-04-12T12:31:17;7.10;;;2.67;;
64199;SDS011;50516;52.272;5.136;2023-04-12T12:33:45;10.15;;;2.80;;
64199;SDS011;50516;52.272;5.136;2023-04-12T12:36:11;8.27;;;2.53;;
64199;SDS011;50516;52.272;5.136;2023-04-12T12:38:38;11.88;;;3.33;;
64199;SDS011;50516;52.272;5.136;2023-04-12T12:41:17;8.13;;;2.78;;
64199;SDS011;50516;52.272;5.136;2023-04-12T12:43:52;10.13;;;2.85;;
64199;SDS011;50516;52.272;5.136;2023-04-12T12:46:18;9.27;;;2.80;;
64199;SDS011;50516;52.272;5.136;2023-04-12T12:48:44;8.30;;;2.85;;
64199;SDS011;50516;52.272;5.136;2023-04-12T12:51:11;9.77;;;2.80;;
64199;SDS011;50516;52.272;5.136;2023-04-12T12:53:40;11.20;;;2.92;;
64199;SDS011;50516;52.272;5.136;2023-04-12T12:56:06;6.40;;;2.63;;
64199;SDS011;50516;52.272;5.136;2023-04-12T12:58:34;6.82;;;2.08;;
64199;SDS011;50516;52.272;5.136;2023-04-12T13:00:59;10.80;;;2.25;;
64199;SDS011;50516;52.272;5.136;2023-04-12T13:03:24;6.20;;;1.95;;
64199;SDS011;50516;52.272;5.136;2023-04-12T13:05:50;7.63;;;2.10;;
64199;SDS011;50516;52.272;5.136;2023-04-12T13:08:15;8.05;;;2.05;;
64199;SDS011;50516;52.272;5.136;2023-04-12T13:10:41;8.55;;;2.35;;
64199;SDS011;50516;52.272;5.136;2023-04-12T13:13:06;6.30;;;1.80;;
64199;SDS011;50516;52.272;5.136;2023-04-12T13:15:32;4.57;;;1.83;;
64199;SDS011;50516;52.272;5.136;2023-04-12T13:17:57;5.18;;;1.92;;
64199;SDS011;50516;52.272;5.136;2023-04-12T13:20:22;9.82;;;2.13;;
64199;SDS011;50516;52.272;5.136;2023-04-12T13:22:48;2.90;;;1.45;;
64199;SDS011;50516;52.272;5.136;2023-04-12T13:25:15;5.30;;;2.15;;
64199;SDS011;50516;52.272;5.136;2023-04-12T13:27:40;6.35;;;2.20;;
64199;SDS011;50516;52.272;5.136;2023-04-12T13:30:06;7.93;;;2.13;;
64199;SDS011;50516;52.272;5.136;2023-04-12T13:32:32;6.05;;;2.15;;
64199;SDS011;50516;52.272;5.136;2023-04-12T13:34:57;5.10;;;2.53;;
64199;SDS011;50516;52.272;5.136;2023-04-12T13:37:23;5.65;;;2.15;;
64199;SDS011;50516;52.272;5.136;2023-04-12T13:39:49;6.22;;;1.70;;
64199;SDS011;50516;52.272;5.136;2023-04-12T13:42:15;6.07;;;2.15;;
64199;SDS011;50516;52.272;5.136;2023-04-12T13:44:40;7.85;;;2.13;;
64199;SDS011;50516;52.272;5.136;2023-04-12T13:47:06;9.52;;;2.33;;
64199;SDS011;50516;52.272;5.136;2023-04-12T13:49:31;9.40;;;2.42;;
64199;SDS011;50516;52.272;5.136;2023-04-12T13:51:56;14.60;;;2.78;;
64199;SDS011;50516;52.272;5.136;2023-04-12T13:54:22;6.72;;;1.90;;
64199;SDS011;50516;52.272;5.136;2023-04-12T13:56:47;11.85;;;2.15;;
64199;SDS011;50516;52.272;5.136;2023-04-12T13:59:12;4.38;;;1.67;;
64199;SDS011;50516;52.272;5.136;2023-04-12T14:01:38;5.15;;;1.80;;
64199;SDS011;50516;52.272;5.136;2023-04-12T14:04:04;6.40;;;2.35;;
64199;SDS011;50516;52.272;5.136;2023-04-12T14:06:30;9.05;;;2.53;;
64199;SDS011;50516;52.272;5.136;2023-04-12T14:08:56;9.77;;;2.38;;
64199;SDS011;50516;52.272;5.136;2023-04-12T14:11:21;6.20;;;2.50;;
64199;SDS011;50516;52.272;5.136;2023-04-12T14:13:47;6.10;;;2.40;;
64199;SDS011;50516;52.272;5.136;2023-04-12T14:16:13;6.57;;;2.20;;
64199;SDS011;50516;52.272;5.136;2023-04-12T14:18:38;9.32;;;2.92;;
64199;SDS011;50516;52.272;5.136;2023-04-12T14:21:03;8.55;;;3.05;;
64199;SDS011;50516;52.272;5.136;2023-04-12T14:23:29;8.63;;;2.42;;
64199;SDS011;50516;52.272;5.136;2023-04-12T14:25:54;8.23;;;2.50;;
64199;SDS011;50516;52.272;5.136;2023-04-12T14:28:20;5.95;;;2.13;;
64199;SDS011;50516;52.272;5.136;2023-04-12T14:30:54;6.22;;;2.08;;
64199;SDS011;50516;52.272;5.136;2023-04-12T14:33:19;7.45;;;2.30;;
64199;SDS011;50516;52.272;5.136;2023-04-12T14:35:45;5.40;;;2.25;;
64199;SDS011;50516;52.272;5.136;2023-04-12T14:38:10;8.23;;;2.15;;
64199;SDS011;50516;52.272;5.136;2023-04-12T14:40:36;5.53;;;1.95;;
64199;SDS011;50516;52.272;5.136;2023-04-12T14:43:02;5.53;;;1.90;;
64199;SDS011;50516;52.272;5.136;2023-04-12T14:45:27;5.78;;;1.92;;
64199;SDS011;50516;52.272;5.136;2023-04-12T14:47:53;6.05;;;1.88;;
64199;SDS011;50516;52.272;5.136;2023-04-12T14:50:18;6.70;;;2.08;;
64199;SDS011;50516;52.272;5.136;2023-04-12T14:52:44;5.13;;;1.73;;
64199;SDS011;50516;52.272;5.136;2023-04-12T14:55:09;5.13;;;1.95;;
64199;SDS011;50516;52.272;5.136;2023-04-12T14:57:35;6.13;;;2.63;;
64199;SDS011;50516;52.272;5.136;2023-04-12T15:00:00;6.05;;;2.40;;
64199;SDS011;50516;52.272;5.136;2023-04-12T15:02:26;7.13;;;2.38;;
64199;SDS011;50516;52.272;5.136;2023-04-12T15:04:51;8.32;;;2.00;;
64199;SDS011;50516;52.272;5.136;2023-04-12T15:07:17;3.85;;;1.50;;
64199;SDS011;50516;52.272;5.136;2023-04-12T15:09:42;9.90;;;2.30;;